Time;durP1;ratioP1;P1;durP2;ratioP2;P2;SDS_P1;SDS_P2;PMS_P1;PMS_P2;Temp;Humidity;BMP_temperature;BMP_pressure;BME280_temperature;BME280_humidity;BME280_pressure;Samples;Min_cycle;Max_cycle;Signal;HPM_P1;HPM_P2
2023/08/27 00:00:11;;;;;;;;;;;;;;;6.60;100.00;99135.09;5005429;28;19928;-84
2023/08/27 00:02:36;;;;;;;;;;;;;;;6.59;100.00;99143.94;5008045;28;19917;-87
2023/08/27 00:05:02;;;;;;;;;;;;;;;6.59;100.00;99148.31;5008001;28;19995;-82
2023/08/27 00:07:27;;;;;;;;;;;;;;;6.62;100.00;99149.09;5005322;28;19918;-83
2023/08/27 00:09:52;;;;;;;;;;;;;;;6.63;100.00;99153.41;5005561;28;19940;-83
2023/08/27 00:12:17;;;;;;;;;;;;;;;6.60;100.00;99140.38;5005997;28;19921;-83
2023/08/27 00:14:43;;;;;;;;;;;;;;;6.62;100.00;99164.88;5006170;28;19924;-83
2023/08/27 00:17:08;;;;;;;;;;;;;;;6.51;100.00;99151.22;5005587;28;20273;-82
2023/08/27 00:19:33;;;;;;;;;;;;;;;6.55;100.00;99156.31;5004619;28;19940;-83
2023/08/27 00:21:58;;;;;;;;;;;;;;;6.52;100.00;99148.53;5006282;28;19956;-83
2023/08/27 00:24:24;;;;;;;;;;;;;;;6.53;100.00;99154.69;5005009;28;20838;-82
2023/08/27 00:26:49;;;;;;;;;;;;;;;6.55;100.00;99163.38;4996728;28;20278;-82
2023/08/27 00:29:19;;;;;;;;;;;;;;;6.59;100.00;99166.75;5000264;28;19937;-88
2023/08/27 00:31:44;;;;;;;;;;;;;;;6.55;100.00;99158.13;5005381;28;20016;-90
2023/08/27 00:34:09;;;;;;;;;;;;;;;6.51;100.00;99151.22;5003370;28;20464;-82
2023/08/27 00:36:34;;;;;;;;;;;;;;;6.50;100.00;99145.13;5005165;28;20442;-82
2023/08/27 00:39:00;;;;;;;;;;;;;;;6.49;100.00;99130.25;5004829;28;20284;-83
2023/08/27 00:41:25;;;;;;;;;;;;;;;6.47;100.00;99139.97;5004846;28;19956;-82
2023/08/27 00:43:50;;;;;;;;;;;;;;;6.47;100.00;99123.31;5004806;28;19926;-84
2023/08/27 00:46:16;;;;;;;;;;;;;;;6.47;100.00;99132.06;5005023;28;19946;-86
2023/08/27 00:48:41;;;;;;;;;;;;;;;6.45;100.00;99128.63;5003319;28;19922;-86
2023/08/27 08:05:02;;;;;;;;;;;;;;;5.56;100.00;99087.00;4992318;28;20330;-82
2023/08/27 08:07:27;;;;;;;;;;;;;;;5.60;100.00;99089.47;4992481;28;19922;-83
2023/08/27 08:09:53;;;;;;;;;;;;;;;5.55;100.00;99101.94;4992417;28;19918;-81
2023/08/27 08:12:19;;;;;;;;;;;;;;;5.63;100.00;99110.41;4992575;28;19921;-81
2023/08/27 08:14:44;;;;;;;;;;;;;;;5.66;100.00;99106.81;4991809;28;20360;-80
2023/08/27 08:17:11;;;;;;;;;;;;;;;5.79;100.00;99117.75;4992003;28;19925;-81
2023/08/27 08:19:36;;;;;;;;;;;;;;;5.70;100.00;99116.31;4996271;28;19957;-81
2023/08/27 08:22:02;;;;;;;;;;;;;;;5.79;100.00;99113.38;4996038;28;20288;-88
2023/08/27 08:24:27;;;;;;;;;;;;;;;5.60;100.00;99115.78;4994890;28;19917;-81
2023/08/27 08:26:52;;;;;;;;;;;;;;;5.61;100.00;99127.13;4995985;28;19918;-80
2023/08/27 08:29:19;;;;;;;;;;;;;;;5.62;100.00;99119.19;4996083;28;20021;-80
2023/08/27 08:31:44;;;;;;;;;;;;;;;5.76;100.00;99124.00;4994545;28;20211;-82
2023/08/27 08:34:09;;;;;;;;;;;;;;;5.87;100.00;99134.16;4995795;28;19922;-82
2023/08/27 08:36:35;;;;;;;;;;;;;;;5.91;100.00;99140.16;4995921;28;19922;-83
2023/08/27 08:39:00;;;;;;;;;;;;;;;5.91;100.00;99145.44;4995731;28;20474;-88
2023/08/27 08:41:28;;;;;;;;;;;;;;;5.96;100.00;99139.13;4996037;28;20015;-82
2023/08/27 08:44:00;;;;;;;;;;;;;;;5.88;100.00;99141.13;4995540;28;19921;-80
2023/08/27 08:46:31;;;;;;;;;;;;;;;5.86;100.00;99132.44;4994502;28;19918;-79
2023/08/27 08:48:57;;;;;;;;;;;;;;;5.90;100.00;99139.28;4995605;28;19956;-81
2023/08/27 08:51:24;;;;;;;;;;;;;;;5.92;100.00;99141.88;4995554;28;19925;-82
2023/08/27 08:53:50;;;;;;;;;;;;;;;5.96;100.00;99133.84;4995454;28;20390;-83
2023/08/27 08:56:21;;;;;;;;;;;;;;;6.00;100.00;99130.22;4995285;28;19922;-83
2023/08/27 08:58:51;;;;;;;;;;;;;;;5.91;100.00;99124.38;4995252;28;20017;-82
2023/08/27 09:01:17;;;;;;;;;;;;;;;5.97;100.00;99125.06;4995343;28;20012;-84
2023/08/27 09:03:44;;;;;;;;;;;;;;;5.97;100.00;99113.69;4993853;28;20474;-82
2023/08/27 09:06:09;;;;;;;;;;;;;;;5.93;100.00;99112.03;4995297;28;19922;-83
2023/08/27 09:08:35;;;;;;;;;;;;;;;5.85;100.00;99101.78;4995313;28;19918;-83
2023/08/27 09:11:00;;;;;;;;;;;;;;;5.92;100.00;99100.66;4995169;28;19922;-82
2023/08/27 09:13:25;;;;;;;;;;;;;;;5.87;100.00;99086.84;4995209;28;20411;-82
2023/08/27 09:15:51;;;;;;;;;;;;;;;5.87;100.00;99089.47;4995158;28;19918;-83
2023/08/27 09:18:16;;;;;;;;;;;;;;;5.96;100.00;99093.53;4993701;28;19925;-84
2023/08/27 09:20:42;;;;;;;;;;;;;;;5.93;100.00;99086.59;4995154;28;19921;-84
2023/08/27 12:53:50;;;;;;;;;;;;;;;5.16;100.00;99089.16;4966247;28;20387;-83
2023/08/27 12:56:15;;;;;;;;;;;;;;;5.38;100.00;99077.97;4975405;28;19933;-82
2023/08/27 12:58:40;;;;;;;;;;;;;;;5.59;100.00;99079.88;4975878;28;19918;-82
2023/08/27 13:01:05;;;;;;;;;;;;;;;5.49;100.00;99081.09;4976111;28;19918;-83
2023/08/27 13:03:31;;;;;;;;;;;;;;;5.55;100.00;99080.91;4975193;28;20029;-82
2023/08/27 13:05:56;;;;;;;;;;;;;;;5.62;100.00;99087.66;4974601;28;20492;-82
2023/08/27 13:08:22;;;;;;;;;;;;;;;5.65;100.00;99084.06;4976071;28;19960;-82
2023/08/27 13:10:47;;;;;;;;;;;;;;;5.62;100.00;99087.66;4975760;28;19930;-83
2023/08/27 13:13:12;;;;;;;;;;;;;;;5.67;100.00;99095.38;4976012;28;19925;-83
2023/08/27 13:15:38;;;;;;;;;;;;;;;5.68;100.00;99093.59;4975847;28;19918;-83
2023/08/27 13:18:03;;;;;;;;;;;;;;;5.80;100.00;99093.19;4975583;28;19925;-82
2023/08/27 13:20:29;;;;;;;;;;;;;;;5.67;100.00;99099.81;4973078;28;20379;-83
2023/08/27 13:22:54;;;;;;;;;;;;;;;5.61;100.00;99098.22;4975484;28;20300;-83
2023/08/27 13:25:19;;;;;;;;;;;;;;;5.71;100.00;99091.75;4975776;28;19922;-82
2023/08/27 13:27:44;;;;;;;;;;;;;;;5.66;100.00;99090.19;4975496;28;19922;-84
2023/08/27 13:30:10;;;;;;;;;;;;;;;5.85;100.00;99082.53;4974220;28;20024;-82
2023/08/27 13:32:35;;;;;;;;;;;;;;;5.74;100.00;99085.53;4975493;28;19922;-82
2023/08/27 13:35:00;;;;;;;;;;;;;;;5.84;100.00;99076.41;4974709;28;19981;-82
2023/08/27 13:37:25;;;;;;;;;;;;;;;6.43;100.00;99079.59;4973405;28;19918;-82
2023/08/27 13:39:51;;;;;;;;;;;;;;;6.67;100.00;99083.94;4975296;28;19976;-82
2023/08/27 13:42:16;;;;;;;;;;;;;;;6.91;100.00;99086.56;4975192;28;19918;-82
2023/08/27 13:44:41;;;;;;;;;;;;;;;6.35;100.00;99086.03;4975072;28;19926;-82
2023/08/27 13:47:06;;;;;;;;;;;;;;;6.04;100.00;99094.16;4973915;28;19925;-82
2023/08/27 13:49:32;;;;;;;;;;;;;;;5.96;100.00;99086.53;4975067;28;19980;-82
2023/08/27 13:51:57;;;;;;;;;;;;;;;5.92;100.00;99074.38;4973688;28;20391;-82
2023/08/27 13:54:22;;;;;;;;;;;;;;;5.95;100.00;99070.75;4974965;28;19926;-82
2023/08/27 13:56:47;;;;;;;;;;;;;;;5.83;100.00;99064.19;4975109;28;20337;-82
2023/08/27 13:59:13;;;;;;;;;;;;;;;5.87;100.00;99072.81;4974963;28;19918;-82
2023/08/27 14:01:38;;;;;;;;;;;;;;;5.96;100.00;99070.75;4973599;28;20332;-82
2023/08/27 14:04:04;;;;;;;;;;;;;;;5.82;100.00;99079.09;4973400;28;20039;-82
2023/08/27 14:06:29;;;;;;;;;;;;;;;5.83;100.00;99069.44;4972187;28;19918;-82
2023/08/27 14:08:54;;;;;;;;;;;;;;;5.94;100.00;99077.81;4974654;28;20452;-82
2023/08/27 14:11:20;;;;;;;;;;;;;;;5.77;100.00;99077.53;4974692;28;19918;-82
2023/08/27 14:13:45;;;;;;;;;;;;;;;5.83;100.00;99064.19;4973635;28;20456;-82
2023/08/27 14:16:10;;;;;;;;;;;;;;;5.73;100.00;99068.91;4974665;28;19996;-83
2023/08/27 14:18:38;;;;;;;;;;;;;;;5.68;100.00;99069.94;4974755;28;19922;-82
2023/08/27 14:21:03;;;;;;;;;;;;;;;5.74;100.00;99059.22;4972621;28;20293;-82
2023/08/27 14:23:28;;;;;;;;;;;;;;;5.73;100.00;99068.91;4973561;28;19929;-82
2023/08/27 14:25:53;;;;;;;;;;;;;;;5.69;100.00;99071.69;4973432;28;19918;-82
2023/08/27 14:28:19;;;;;;;;;;;;;;;5.71;100.00;99069.84;4974529;28;19922;-82
2023/08/27 14:30:44;;;;;;;;;;;;;;;5.87;100.00;99071.06;4974415;28;20265;-82
2023/08/27 14:33:09;;;;;;;;;;;;;;;5.73;100.00;99062.78;4974353;28;20021;-82
2023/08/27 14:35:34;;;;;;;;;;;;;;;5.73;100.00;99066.28;4972874;28;19926;-82
2023/08/27 14:38:00;;;;;;;;;;;;;;;5.66;100.00;99072.63;4974119;28;20403;-82
2023/08/27 14:40:26;;;;;;;;;;;;;;;5.69;100.00;99072.53;4974240;28;19926;-82
2023/08/27 14:42:51;;;;;;;;;;;;;;;5.66;100.00;99071.78;4974154;28;20257;-82
2023/08/27 14:45:16;;;;;;;;;;;;;;;5.68;100.00;99069.94;4972756;28;19941;-82
2023/08/27 14:47:42;;;;;;;;;;;;;;;5.65;100.00;99076.19;4974091;28;19918;-82
2023/08/27 14:50:08;;;;;;;;;;;;;;;5.59;100.00;99074.63;4973033;28;19961;-82
2023/08/27 14:52:34;;;;;;;;;;;;;;;5.60;100.00;99073.72;4972717;28;19973;-82
2023/08/27 14:54:59;;;;;;;;;;;;;;;5.59;100.00;99073.75;4973871;28;20388;-82
2023/08/27 14:57:24;;;;;;;;;;;;;;;5.67;100.00;99071.72;4973934;28;19918;-82
2023/08/27 14:59:50;;;;;;;;;;;;;;;5.71;100.00;99078.63;4973754;28;19944;-82
2023/08/27 15:02:17;;;;;;;;;;;;;;;5.71;100.00;99077.72;4973853;28;19922;-82
2023/08/27 15:04:43;;;;;;;;;;;;;;;5.74;100.00;99082.88;4973670;28;20371;-82
2023/08/27 15:07:08;;;;;;;;;;;;;;;5.71;100.00;99090.88;4972381;28;19918;-81
2023/08/27 15:09:33;;;;;;;;;;;;;;;5.67;100.00;99094.53;4973565;28;20004;-82
2023/08/27 15:11:58;;;;;;;;;;;;;;;5.72;100.00;99085.56;4973624;28;19918;-82
2023/08/27 15:14:24;;;;;;;;;;;;;;;5.76;100.00;99099.47;4973759;28;19918;-82
2023/08/27 15:16:52;;;;;;;;;;;;;;;5.71;100.00;99106.66;4973471;28;19956;-82
2023/08/27 15:19:18;;;;;;;;;;;;;;;5.62;100.00;99092.91;4972821;28;19922;-82
2023/08/27 15:21:44;;;;;;;;;;;;;;;6.09;100.00;99096.63;4971911;28;20008;-82
2023/08/27 15:24:10;;;;;;;;;;;;;;;6.46;100.00;99098.78;4973420;28;20384;-82
2023/08/27 15:26:35;;;;;;;;;;;;;;;6.70;100.00;99104.91;4973340;28;19928;-84
2023/08/27 15:29:00;;;;;;;;;;;;;;;6.39;100.00;99089.38;4973302;28;19918;-82
2023/08/27 15:31:26;;;;;;;;;;;;;;;6.05;100.00;99100.25;4973616;28;20001;-82
2023/08/27 15:33:51;;;;;;;;;;;;;;;5.91;100.00;99095.47;4973124;28;19934;-82
2023/08/27 15:36:17;;;;;;;;;;;;;;;5.85;100.00;99101.78;4972019;28;20377;-82
2023/08/27 15:38:43;;;;;;;;;;;;;;;5.81;100.00;99101.03;4973342;28;19922;-82
2023/08/27 15:41:08;;;;;;;;;;;;;;;5.88;100.00;99099.06;4973283;28;19961;-82
2023/08/27 15:43:35;;;;;;;;;;;;;;;6.33;100.00;99098.38;4971781;28;20017;-82
2023/08/27 15:46:00;;;;;;;;;;;;;;;6.64;100.00;99107.75;4973123;28;19924;-82
2023/08/27 15:48:25;;;;;;;;;;;;;;;6.82;100.00;99113.25;4972978;28;19914;-82
2023/08/27 15:50:51;;;;;;;;;;;;;;;6.25;100.00;99110.94;4971876;28;19918;-82
2023/08/27 15:53:17;;;;;;;;;;;;;;;6.12;100.00;99117.56;4971960;28;19946;-82
2023/08/27 15:55:42;;;;;;;;;;;;;;;6.02;100.00;99114.38;4973163;28;19925;-83
2023/08/27 15:58:07;;;;;;;;;;;;;;;5.90;100.00;99109.50;4973073;28;20420;-81
2023/08/27 16:00:37;;;;;;;;;;;;;;;5.88;100.00;99108.72;4971776;28;20358;-82
2023/08/27 16:03:06;;;;;;;;;;;;;;;6.14;100.00;99115.72;4972805;28;19918;-82
2023/08/27 16:05:32;;;;;;;;;;;;;;;6.61;100.00;99115.78;4971234;28;19929;-82
2023/08/27 16:07:58;;;;;;;;;;;;;;;6.90;100.00;99121.72;4972806;28;19922;-82
2023/08/27 16:10:23;;;;;;;;;;;;;;;6.89;100.00;99114.72;4972970;28;19918;-82
2023/08/27 16:12:49;;;;;;;;;;;;;;;6.35;100.00;99112.34;4973089;28;19925;-82
2023/08/27 16:15:14;;;;;;;;;;;;;;;6.12;100.00;99117.56;4972890;28;20412;-83
2023/08/27 16:17:40;;;;;;;;;;;;;;;6.08;100.00;99126.44;4972961;28;20022;-81
2023/08/27 16:20:05;;;;;;;;;;;;;;;5.95;100.00;99126.88;4972446;28;20365;-82
2023/08/27 16:22:31;;;;;;;;;;;;;;;5.94;100.00;99117.25;4986229;28;19925;-82
2023/08/27 16:24:56;;;;;;;;;;;;;;;5.92;100.00;99124.34;4971541;28;19995;-85
2023/08/27 16:27:21;;;;;;;;;;;;;;;5.78;100.00;99126.59;4973040;28;19921;-82
2023/08/27 16:29:46;;;;;;;;;;;;;;;5.82;100.00;99130.81;4972877;28;19918;-82
2023/08/27 16:32:12;;;;;;;;;;;;;;;5.79;100.00;99131.78;4971467;28;20448;-82
2023/08/27 16:34:37;;;;;;;;;;;;;;;5.85;100.00;99133.34;4972751;28;19918;-84
2023/08/27 16:37:02;;;;;;;;;;;;;;;5.79;100.00;99131.78;4970739;28;19922;-82
2023/08/27 16:39:28;;;;;;;;;;;;;;;5.79;100.00;99125.66;4976373;28;20288;-82
2023/08/27 16:41:53;;;;;;;;;;;;;;;5.82;100.00;99115.91;4976267;28;19960;-82
2023/08/27 16:44:18;;;;;;;;;;;;;;;5.79;100.00;99131.78;4976196;28;19918;-82
2023/08/27 16:46:44;;;;;;;;;;;;;;;5.75;100.00;99126.69;4976123;28;19922;-81
2023/08/27 16:49:09;;;;;;;;;;;;;;;5.81;100.00;99127.31;4974725;28;19925;-81
2023/08/27 16:51:34;;;;;;;;;;;;;;;5.75;100.00;99134.56;4974930;28;19922;-82
2023/08/27 16:53:59;;;;;;;;;;;;;;;5.75;100.00;99139.81;4974711;28;19922;-82
2023/08/27 16:56:24;;;;;;;;;;;;;;;5.79;100.00;99121.28;4976065;28;19926;-82
2023/08/27 16:58:50;;;;;;;;;;;;;;;5.74;100.00;99130.22;4975996;28;20493;-82
2023/08/27 17:01:15;;;;;;;;;;;;;;;5.70;100.00;99131.25;4975989;28;19926;-82
2023/08/27 17:03:40;;;;;;;;;;;;;;;5.71;100.00;99125.94;4975773;28;19926;-82
2023/08/27 17:06:05;;;;;;;;;;;;;;;5.61;100.00;99127.97;4974533;28;19953;-81
2023/08/27 17:08:31;;;;;;;;;;;;;;;5.66;100.00;99122.56;4975838;28;20297;-82
2023/08/27 17:10:56;;;;;;;;;;;;;;;5.62;100.00;99124.44;4974301;28;19930;-82
2023/08/27 17:13:21;;;;;;;;;;;;;;;5.71;100.00;99128.56;4974270;28;19919;-82
2023/08/27 17:15:46;;;;;;;;;;;;;;;5.71;100.00;99119.78;4975746;28;20358;-82
2023/08/27 17:18:12;;;;;;;;;;;;;;;5.69;100.00;99121.63;4973156;28;19922;-82
2023/08/27 17:20:38;;;;;;;;;;;;;;;5.61;100.00;99117.47;4970401;28;19926;-81
2023/08/27 17:23:03;;;;;;;;;;;;;;;5.72;100.00;99114.47;4972679;28;20369;-82
2023/08/27 17:25:29;;;;;;;;;;;;;;;5.68;100.00;99117.28;4971489;28;20373;-81
2023/08/27 17:27:54;;;;;;;;;;;;;;;5.74;100.00;99117.06;4971659;28;19926;-81
2023/08/27 17:30:19;;;;;;;;;;;;;;;5.66;100.00;99111.22;4974757;28;19933;-82
2023/08/27 17:32:44;;;;;;;;;;;;;;;5.70;100.00;99120.72;4975380;28;20470;-82
2023/08/27 17:35:09;;;;;;;;;;;;;;;5.74;100.00;99117.06;4972036;28;20027;-82
2023/08/27 17:37:35;;;;;;;;;;;;;;;5.64;100.00;99117.38;4974976;28;19929;-82
2023/08/27 17:40:00;;;;;;;;;;;;;;;5.69;100.00;99119.00;4973804;28;19934;-84
2023/08/27 17:42:25;;;;;;;;;;;;;;;5.69;100.00;99124.25;4973366;28;20407;-82
2023/08/27 17:44:50;;;;;;;;;;;;;;;5.62;100.00;99132.34;4973456;28;19926;-82
2023/08/27 17:47:17;;;;;;;;;;;;;;;5.70;100.00;99136.50;4972722;28;19926;-83
2023/08/27 17:49:43;;;;;;;;;;;;;;;5.70;100.00;99136.50;4974896;28;19922;-83
2023/08/27 17:52:08;;;;;;;;;;;;;;;5.74;100.00;99138.94;4973759;28;19925;-82
2023/08/27 17:54:33;;;;;;;;;;;;;;;6.15;100.00;99136.72;4974983;28;20496;-83
2023/08/27 17:56:59;;;;;;;;;;;;;;;6.55;100.00;99139.69;4973539;28;19973;-82
2023/08/27 17:59:24;;;;;;;;;;;;;;;6.76;100.00;99139.81;4974789;28;19919;-83
2023/08/27 18:01:49;;;;;;;;;;;;;;;6.48;100.00;99156.63;4974927;28;20365;-83
2023/08/27 18:04:15;;;;;;;;;;;;;;;6.06;100.00;99144.91;4974788;28;20038;-82
2023/08/27 18:06:40;;;;;;;;;;;;;;;6.00;100.00;99143.38;4973266;28;20803;-82
2023/08/27 18:09:05;;;;;;;;;;;;;;;5.89;100.00;99144.59;4970666;28;19974;-82
2023/08/27 18:11:30;;;;;;;;;;;;;;;5.81;100.00;99150.13;4973122;28;19953;-82
2023/08/27 18:13:56;;;;;;;;;;;;;;;5.83;100.00;99150.94;4974650;28;19973;-82
2023/08/27 18:16:21;;;;;;;;;;;;;;;5.79;100.00;99157.19;4974590;28;19922;-82
2023/08/27 18:18:46;;;;;;;;;;;;;;;5.77;100.00;99159.03;4974504;28;20365;-82
2023/08/27 18:21:11;;;;;;;;;;;;;;;5.74;100.00;99167.00;4973375;28;20545;-82
2023/08/27 18:23:37;;;;;;;;;;;;;;;5.69;100.00;99166.31;4974302;28;19922;-82
2023/08/27 18:26:03;;;;;;;;;;;;;;;5.66;100.00;99177.78;4974396;28;19929;-82
2023/08/27 18:28:28;;;;;;;;;;;;;;;5.63;100.00;99176.13;4974569;28;20364;-85
2023/08/27 18:30:55;;;;;;;;;;;;;;;5.60;100.00;99181.47;4974529;28;19925;-82
2023/08/27 18:33:20;;;;;;;;;;;;;;;5.58;100.00;99185.91;4973321;28;19965;-83
2023/08/27 18:35:45;;;;;;;;;;;;;;;5.58;100.00;99190.31;4973324;28;20379;-82
2023/08/27 18:38:13;;;;;;;;;;;;;;;5.63;100.00;99194.53;4974208;28;19918;-82
2023/08/27 18:40:38;;;;;;;;;;;;;;;5.63;100.00;99189.25;4974257;28;19918;-82
2023/08/27 18:43:04;;;;;;;;;;;;;;;5.62;100.00;99195.41;4974096;28;19924;-82
2023/08/27 18:45:30;;;;;;;;;;;;;;;5.59;100.00;99207.81;4973876;28;19922;-82
2023/08/27 18:48:00;;;;;;;;;;;;;;;5.54;100.00;99222.88;4971256;28;20197;-82
2023/08/27 18:50:26;;;;;;;;;;;;;;;5.53;100.00;99229.03;4972730;28;20424;-82
2023/08/27 18:52:51;;;;;;;;;;;;;;;5.52;100.00;99233.44;4972446;28;19922;-82
2023/08/27 18:55:16;;;;;;;;;;;;;;;5.51;100.00;99231.69;4972604;28;20468;-83
2023/08/27 18:57:42;;;;;;;;;;;;;;;5.52;100.00;99235.16;4972988;28;20405;-82
2023/08/27 19:00:07;;;;;;;;;;;;;;;5.54;100.00;99242.13;4972877;28;19981;-81
2023/08/27 19:02:33;;;;;;;;;;;;;;;5.50;100.00;99243.09;4973574;28;19925;-82
2023/08/27 19:04:58;;;;;;;;;;;;;;;5.45;100.00;99242.38;4972774;28;19922;-82
2023/08/27 19:07:23;;;;;;;;;;;;;;;5.40;100.00;99244.31;4971205;28;20726;-82
2023/08/27 19:09:48;;;;;;;;;;;;;;;5.52;100.00;99254.44;4973093;28;20416;-81
2023/08/27 19:12:14;;;;;;;;;;;;;;;5.51;100.00;99255.34;4973510;28;20487;-82
2023/08/27 19:14:39;;;;;;;;;;;;;;;5.43;100.00;99258.19;4972417;28;19925;-82
2023/08/27 19:17:05;;;;;;;;;;;;;;;5.44;100.00;99259.06;4973639;28;20073;-82
2023/08/27 19:19:30;;;;;;;;;;;;;;;5.40;100.00;99270.59;4973468;28;20262;-83
2023/08/27 19:21:55;;;;;;;;;;;;;;;5.45;100.00;99268.66;4972304;28;20487;-83
2023/08/27 19:24:21;;;;;;;;;;;;;;;5.43;100.00;99273.13;4973366;28;20295;-82
2023/08/27 19:26:46;;;;;;;;;;;;;;;5.45;100.00;99279.19;4973567;28;19922;-82
2023/08/27 19:29:11;;;;;;;;;;;;;;;5.46;100.00;99270.41;4973443;28;20284;-82
2023/08/27 19:31:36;;;;;;;;;;;;;;;5.45;100.00;99279.19;4971857;28;19926;-82
2023/08/27 19:34:02;;;;;;;;;;;;;;;5.50;100.00;99285.16;4972600;28;19922;-83
2023/08/27 19:36:27;;;;;;;;;;;;;;;5.49;100.00;99291.34;4971138;28;20400;-83
2023/08/27 19:38:52;;;;;;;;;;;;;;;5.46;100.00;99291.41;4973044;28;20341;-82
2023/08/27 19:41:17;;;;;;;;;;;;;;;5.51;100.00;99300.03;4972831;28;20348;-83
2023/08/27 19:43:42;;;;;;;;;;;;;;;5.51;100.00;99300.03;4971913;28;20258;-83
2023/08/27 19:46:08;;;;;;;;;;;;;;;5.52;100.00;99304.38;4971573;28;19942;-83
2023/08/27 19:48:36;;;;;;;;;;;;;;;5.48;100.00;99299.25;4987513;28;19918;-82
2023/08/27 19:51:01;;;;;;;;;;;;;;;5.45;100.00;99298.41;4972104;28;19926;-83
2023/08/27 19:53:26;;;;;;;;;;;;;;;5.56;100.00;99303.38;4971000;28;20361;-82
2023/08/27 19:55:52;;;;;;;;;;;;;;;5.46;100.00;99307.19;4971603;28;20017;-83
2023/08/27 19:58:18;;;;;;;;;;;;;;;5.42;100.00;99305.53;4972912;28;19965;-82
2023/08/27 20:00:43;;;;;;;;;;;;;;;5.33;100.00;99298.81;4972795;28;19976;-83
2023/08/27 20:03:09;;;;;;;;;;;;;;;5.38;100.00;99303.94;4973019;28;19976;-83
2023/08/27 20:05:36;;;;;;;;;;;;;;;5.40;100.00;99317.88;4970333;28;19929;-82
2023/08/27 20:08:02;;;;;;;;;;;;;;;5.39;100.00;99313.50;4969710;28;19980;-83
2023/08/27 20:10:27;;;;;;;;;;;;;;;5.41;100.00;99319.59;4970052;28;20017;-84
2023/08/27 20:12:52;;;;;;;;;;;;;;;6.39;100.00;99314.84;4973690;28;19925;-83
2023/08/27 20:15:17;;;;;;;;;;;;;;;5.70;100.00;99315.25;4975755;28;19918;-83
2023/08/27 20:17:43;;;;;;;;;;;;;;;5.48;100.00;99322.91;4976911;28;20009;-86
2023/08/27 20:20:08;;;;;;;;;;;;;;;5.39;100.00;99321.41;4973691;28;20414;-82
2023/08/27 20:22:33;;;;;;;;;;;;;;;5.42;100.00;99326.56;4975817;28;20377;-83
2023/08/27 20:24:58;;;;;;;;;;;;;;;5.38;100.00;99324.94;4976562;28;19925;-83
2023/08/27 20:27:24;;;;;;;;;;;;;;;5.34;100.00;99337.28;4975239;28;19926;-83
2023/08/27 20:29:49;;;;;;;;;;;;;;;5.36;100.00;99335.50;4976661;28;19973;-83
2023/08/27 20:32:14;;;;;;;;;;;;;;;5.37;100.00;99328.47;4976330;28;19922;-82
2023/08/27 20:34:39;;;;;;;;;;;;;;;5.36;100.00;99324.13;4975212;28;19918;-83
2023/08/27 20:37:05;;;;;;;;;;;;;;;5.37;100.00;99321.44;4974006;28;19926;-82
2023/08/27 20:39:30;;;;;;;;;;;;;;;5.31;100.00;99313.72;4976469;28;20381;-83
2023/08/27 20:41:55;;;;;;;;;;;;;;;5.31;100.00;99318.13;4976451;28;20013;-82
2023/08/27 20:44:20;;;;;;;;;;;;;;;5.30;100.00;99316.41;4976296;28;19922;-83
2023/08/27 20:46:46;;;;;;;;;;;;;;;5.25;100.00;99309.53;4976122;28;19924;-83
2023/08/27 20:49:14;;;;;;;;;;;;;;;5.25;100.00;99314.78;4976476;28;20294;-83
2023/08/27 20:51:39;;;;;;;;;;;;;;;5.29;100.00;99315.56;4975000;28;19929;-83
2023/08/27 20:54:08;;;;;;;;;;;;;;;5.28;100.00;99314.69;4976063;28;19922;-83
2023/08/27 20:56:34;;;;;;;;;;;;;;;5.22;100.00;99319.28;4975312;28;19980;-83
2023/08/27 20:58:59;;;;;;;;;;;;;;;5.24;100.00;99317.47;4975994;28;19918;-85
2023/08/27 21:01:24;;;;;;;;;;;;;;;5.26;100.00;99320.88;4975766;28;20001;-83
2023/08/27 21:03:49;;;;;;;;;;;;;;;5.21;100.00;99314.91;4976024;28;19961;-82
2023/08/27 21:06:15;;;;;;;;;;;;;;;5.16;100.00;99322.06;4968840;28;19985;-82
2023/08/27 21:08:40;;;;;;;;;;;;;;;5.15;100.00;99323.81;4974402;28;19918;-82
2023/08/27 21:11:07;;;;;;;;;;;;;;;5.21;100.00;99323.66;4974538;28;19929;-82
2023/08/27 21:13:33;;;;;;;;;;;;;;;5.22;100.00;99329.78;4973857;28;20380;-83
2023/08/27 21:15:58;;;;;;;;;;;;;;;5.25;100.00;99324.44;4971962;28;19976;-83
2023/08/27 21:18:23;;;;;;;;;;;;;;;5.22;100.00;99329.78;4974481;28;19922;-82
2023/08/27 21:20:55;;;;;;;;;;;;;;;5.26;100.00;99329.66;4973151;28;19972;-83
2023/08/27 21:23:21;;;;;;;;;;;;;;;5.27;100.00;99333.13;4973875;28;19918;-83
2023/08/27 21:25:46;;;;;;;;;;;;;;;5.19;100.00;99325.47;4974070;28;19930;-82
2023/08/27 21:28:11;;;;;;;;;;;;;;;5.20;100.00;99329.81;4971330;28;20266;-82
2023/08/27 21:30:37;;;;;;;;;;;;;;;5.22;100.00;99332.41;4974088;28;20285;-83
2023/08/27 21:33:02;;;;;;;;;;;;;;;5.18;100.00;99326.34;4974227;28;19918;-83
2023/08/27 21:35:27;;;;;;;;;;;;;;;5.25;100.00;99335.81;4974142;28;19957;-83
2023/08/27 21:37:53;;;;;;;;;;;;;;;5.20;100.00;99337.69;4974111;28;19918;-83
2023/08/27 21:40:18;;;;;;;;;;;;;;;5.21;100.00;99339.41;4975447;28;20425;-83
2023/08/27 21:42:43;;;;;;;;;;;;;;;5.16;100.00;99338.69;4975292;28;20341;-82
2023/08/27 21:45:08;;;;;;;;;;;;;;;5.12;100.00;99339.66;4973227;28;19929;-83
2023/08/27 21:47:34;;;;;;;;;;;;;;;5.19;100.00;99341.22;4975144;28;20286;-83
2023/08/27 21:49:59;;;;;;;;;;;;;;;5.08;100.00;99343.28;4975235;28;19922;-82
2023/08/27 21:52:24;;;;;;;;;;;;;;;5.03;100.00;99348.66;4973699;28;19918;-82
2023/08/27 21:54:50;;;;;;;;;;;;;;;5.11;100.00;99343.22;4974916;28;19922;-83
2023/08/27 21:57:15;;;;;;;;;;;;;;;5.09;100.00;99339.78;4975049;28;19969;-83
2023/08/27 21:59:40;;;;;;;;;;;;;;;5.07;100.00;99341.56;4971239;28;19926;-83
2023/08/27 22:02:05;;;;;;;;;;;;;;;5.07;100.00;99336.31;4974858;28;19973;-82
2023/08/27 22:04:30;;;;;;;;;;;;;;;5.01;100.00;99341.72;4974553;28;19961;-83
2023/08/27 22:06:56;;;;;;;;;;;;;;;5.06;100.00;99345.09;4972359;28;19945;-83
2023/08/27 22:09:21;;;;;;;;;;;;;;;5.09;100.00;99339.78;4974791;28;19926;-90
2023/08/27 22:11:46;;;;;;;;;;;;;;;5.04;100.00;99337.25;4973437;28;19969;-83
2023/08/27 22:14:12;;;;;;;;;;;;;;;5.00;100.00;99340.88;4973551;28;19918;-83
2023/08/27 22:16:38;;;;;;;;;;;;;;;5.00;100.00;99340.00;4973279;28;19918;-83
2023/08/27 22:19:04;;;;;;;;;;;;;;;5.02;100.00;99330.31;4973394;28;19922;-83
2023/08/27 22:21:29;;;;;;;;;;;;;;;5.00;100.00;99327.72;4973310;28;19922;-82
2023/08/27 22:23:56;;;;;;;;;;;;;;;4.97;100.00;99330.44;4973185;28;19918;-82
2023/08/27 22:26:21;;;;;;;;;;;;;;;4.94;100.00;99340.19;4973322;28;19925;-83
2023/08/27 22:28:46;;;;;;;;;;;;;;;4.99;100.00;99339.13;4974465;28;20285;-82
2023/08/27 22:31:12;;;;;;;;;;;;;;;5.04;100.00;99342.53;4973036;28;19925;-83
2023/08/27 22:33:37;;;;;;;;;;;;;;;5.03;100.00;99329.44;4974357;28;19918;-83
2023/08/27 22:36:03;;;;;;;;;;;;;;;5.04;100.00;99331.13;4972496;28;20005;-83
2023/08/27 22:38:28;;;;;;;;;;;;;;;4.98;100.00;99337.44;4973471;28;19922;-82
2023/08/27 22:40:53;;;;;;;;;;;;;;;4.98;100.00;99347.03;4974505;28;19922;-83
2023/08/27 22:43:18;;;;;;;;;;;;;;;4.96;100.00;99349.72;4974385;28;20033;-84
2023/08/27 22:45:48;;;;;;;;;;;;;;;4.97;100.00;99348.81;4968148;28;20374;-83
2023/08/27 22:48:13;;;;;;;;;;;;;;;5.03;100.00;99347.81;4974098;28;19918;-82
2023/08/27 22:50:38;;;;;;;;;;;;;;;5.02;100.00;99348.69;4971533;28;19918;-83
2023/08/27 22:53:04;;;;;;;;;;;;;;;4.99;100.00;99349.63;4974060;28;19965;-83
2023/08/27 22:55:29;;;;;;;;;;;;;;;4.98;100.00;99353.19;4973069;28;19938;-82
2023/08/27 22:57:54;;;;;;;;;;;;;;;5.02;100.00;99353.94;4968680;28;20005;-82
2023/08/27 23:00:19;;;;;;;;;;;;;;;4.97;100.00;99358.47;4973630;28;19934;-83
2023/08/27 23:02:45;;;;;;;;;;;;;;;4.98;100.00;99358.44;4972539;28;19922;-83
2023/08/27 23:05:10;;;;;;;;;;;;;;;4.94;100.00;99363.81;4972192;28;19917;-82
2023/08/27 23:07:36;;;;;;;;;;;;;;;4.89;100.00;99362.16;4972078;28;19944;-82
2023/08/27 23:10:01;;;;;;;;;;;;;;;4.94;100.00;99362.03;4972464;28;19933;-82
2023/08/27 23:12:26;;;;;;;;;;;;;;;4.89;100.00;99358.69;4967439;28;19918;-83
2023/08/27 23:14:51;;;;;;;;;;;;;;;4.91;100.00;99352.50;4973595;28;19917;-83
2023/08/27 23:17:17;;;;;;;;;;;;;;;4.87;100.00;99352.59;4972343;28;19918;-83
2023/08/27 23:19:42;;;;;;;;;;;;;;;4.87;100.00;99348.22;4972274;28;20294;-83
2023/08/27 23:22:07;;;;;;;;;;;;;;;4.85;100.00;99352.66;4970946;28;19924;-83